createdAt,value
2023-10-06T00:00:35.243Z,15.16
2023-10-06T00:04:53.384Z,15.18
2023-10-06T00:09:11.348Z,14.98
2023-10-06T00:13:30.823Z,14.95
2023-10-06T00:17:50.733Z,15.13
2023-10-06T00:22:19.448Z,15.19
2023-10-06T00:26:35.926Z,15.12
2023-10-06T00:31:09.952Z,15.03
2023-10-06T00:35:32.706Z,14.80
2023-10-06T00:39:51.577Z,15.07
2023-10-06T00:44:08.144Z,14.98
2023-10-06T00:48:25.231Z,14.71
2023-10-06T00:52:42.348Z,14.74
2023-10-06T00:56:59.633Z,14.71
2023-10-06T01:01:18.814Z,14.45
2023-10-06T01:05:35.540Z,14.22
2023-10-06T01:09:58.531Z,14.25
2023-10-06T01:14:16.705Z,14.20
2023-10-06T01:18:36.614Z,14.12
2023-10-06T01:22:57.683Z,14.07
2023-10-06T01:27:14.256Z,14.20
2023-10-06T01:31:31.098Z,14.26
2023-10-06T01:35:47.526Z,13.94
2023-10-06T01:40:10.047Z,13.75
2023-10-06T01:44:28.926Z,13.66
2023-10-06T01:48:45.271Z,13.61
2023-10-06T01:53:06.601Z,13.66
2023-10-06T01:57:24.066Z,13.93
2023-10-06T02:01:41.845Z,13.84
2023-10-06T02:06:01.363Z,13.83
2023-10-06T02:10:19.822Z,13.65
2023-10-06T02:14:37.215Z,13.50
2023-10-06T02:18:55.531Z,13.76
2023-10-06T02:23:14.595Z,13.60
2023-10-06T02:27:37.415Z,13.93
2023-10-06T02:31:54.215Z,13.48
2023-10-06T02:36:19.581Z,13.45
2023-10-06T02:40:50.077Z,13.57
2023-10-06T02:45:08.309Z,13.53
2023-10-06T02:49:33.369Z,13.41
2023-10-06T02:53:52.334Z,13.36
2023-10-06T02:58:11.280Z,13.35
2023-10-06T03:02:28.046Z,13.18
2023-10-06T03:07:05.171Z,13.54
2023-10-06T03:11:24.878Z,13.56
2023-10-06T03:15:47.708Z,13.38
2023-10-06T03:20:13.081Z,13.42
2023-10-06T03:24:38.117Z,13.11
2023-10-06T03:28:54.740Z,13.18
2023-10-06T03:33:13.912Z,13.03
2023-10-06T03:37:48.570Z,13.07
2023-10-06T03:42:09.008Z,12.93
2023-10-06T03:46:25.924Z,12.92
2023-10-06T03:50:45.173Z,13.06
2023-10-06T03:55:01.821Z,13.20
2023-10-06T03:59:18.605Z,13.32
2023-10-06T04:03:35.543Z,13.16
2023-10-06T04:07:51.987Z,13.04
2023-10-06T04:12:08.457Z,13.31
2023-10-06T04:16:25.510Z,13.03
2023-10-06T04:20:45.280Z,12.96
2023-10-06T04:25:01.836Z,13.11
2023-10-06T04:29:20.231Z,13.15
2023-10-06T04:33:36.927Z,13.19
2023-10-06T04:37:53.522Z,12.93
2023-10-06T04:42:09.905Z,12.83
2023-10-06T04:46:27.451Z,12.87
2023-10-06T04:50:44.157Z,13.05
2023-10-06T04:55:04.536Z,12.90
2023-10-06T04:59:20.939Z,13.08
2023-10-06T05:03:47.871Z,13.19
2023-10-06T05:08:06.373Z,12.93
2023-10-06T05:12:24.978Z,12.97
2023-10-06T05:16:42.405Z,12.95
2023-10-06T05:20:59.561Z,13.01
2023-10-06T05:25:16.612Z,13.10
2023-10-06T05:29:37.461Z,13.03
2023-10-06T05:33:53.820Z,13.08
2023-10-06T05:38:17.418Z,13.07
2023-10-06T05:42:34.622Z,13.02
2023-10-06T05:46:50.933Z,13.07
2023-10-06T05:51:11.430Z,13.09
2023-10-06T05:55:36.573Z,13.05
2023-10-06T05:59:53.403Z,13.23
2023-10-06T06:04:10.593Z,13.05
2023-10-06T06:08:26.881Z,13.13
2023-10-06T06:12:43.820Z,13.14
2023-10-06T06:17:01.811Z,13.31
2023-10-06T06:21:18.171Z,13.31
2023-10-06T06:25:37.324Z,13.30
2023-10-06T06:29:54.238Z,13.30
2023-10-06T06:34:10.782Z,13.49
2023-10-06T06:38:27.146Z,13.44
2023-10-06T06:42:43.576Z,13.57
2023-10-06T06:46:59.883Z,13.86
2023-10-06T06:51:16.189Z,14.00
2023-10-06T06:55:33.662Z,14.26
2023-10-06T06:59:50.902Z,14.21
2023-10-06T07:04:09.967Z,14.21
2023-10-06T07:08:26.437Z,14.74
2023-10-06T07:12:44.508Z,15.02
2023-10-06T07:17:01.749Z,14.93
2023-10-06T07:21:19.337Z,15.15
2023-10-06T07:25:35.636Z,15.44
2023-10-06T07:29:55.153Z,15.61
2023-10-06T07:34:13.396Z,15.93
2023-10-06T07:38:29.865Z,15.73
2023-10-06T07:42:47.979Z,15.73
2023-10-06T07:47:04.671Z,16.20
2023-10-06T07:51:21.228Z,16.42
2023-10-06T07:55:38.404Z,16.56
2023-10-06T07:59:54.745Z,16.17
2023-10-06T08:04:12.086Z,16.43
2023-10-06T08:08:30.170Z,16.60
2023-10-06T08:12:57.851Z,16.24
2023-10-06T08:17:14.403Z,16.42
2023-10-06T08:21:30.746Z,16.71
2023-10-06T08:25:59.715Z,16.34
2023-10-06T08:30:18.619Z,16.95
2023-10-06T08:34:40.641Z,17.63
2023-10-06T08:38:59.093Z,18.28
2023-10-06T08:43:19.490Z,17.93
2023-10-06T08:47:49.023Z,17.51
2023-10-06T08:52:13.537Z,18.62
2023-10-06T08:56:32.128Z,18.90
2023-10-06T09:00:48.737Z,19.10
2023-10-06T09:05:06.923Z,18.88
2023-10-06T09:09:29.548Z,18.49
2023-10-06T09:13:48.222Z,18.83
2023-10-06T09:18:22.240Z,18.83
2023-10-06T09:22:52.071Z,19.55
2023-10-06T09:27:21.332Z,19.95
2023-10-06T09:31:40.144Z,19.65
2023-10-06T09:36:08.673Z,19.66
2023-10-06T09:40:25.096Z,20.42
2023-10-06T09:44:42.809Z,20.94
2023-10-06T09:49:01.188Z,21.07
2023-10-06T09:53:19.375Z,20.39
2023-10-06T09:57:36.758Z,21.35
2023-10-06T10:01:53.731Z,20.67
2023-10-06T10:06:11.356Z,20.81
2023-10-06T10:10:29.011Z,21.46
2023-10-06T10:14:56.574Z,21.52
2023-10-06T10:19:14.684Z,22.16
2023-10-06T10:23:31.960Z,22.38
2023-10-06T10:28:18.829Z,23.02
2023-10-06T10:32:35.251Z,22.77
2023-10-06T10:37:15.501Z,23.41
2023-10-06T10:41:36.607Z,23.48
2023-10-06T10:46:00.830Z,23.38
2023-10-06T10:50:18.507Z,22.94
2023-10-06T10:54:36.957Z,23.32
2023-10-06T10:58:55.397Z,23.16
2023-10-06T11:03:12.376Z,22.39
2023-10-06T11:07:28.809Z,22.78
2023-10-06T11:11:45.099Z,22.30
2023-10-06T11:16:06.377Z,22.85
2023-10-06T11:20:28.715Z,23.60
2023-10-06T11:24:45.963Z,23.24
2023-10-06T11:29:02.340Z,23.73
2023-10-06T11:33:21.579Z,23.62
2023-10-06T11:37:38.106Z,24.26
2023-10-06T11:41:57.319Z,25.38
2023-10-06T11:46:16.769Z,25.08
2023-10-06T11:50:34.044Z,25.64
2023-10-06T11:54:51.100Z,26.33
2023-10-06T11:59:19.459Z,26.43
2023-10-06T12:03:44.360Z,25.18
2023-10-06T12:08:10.231Z,26.18
2023-10-06T12:12:26.718Z,26.23
2023-10-06T12:16:46.453Z,25.99
2023-10-06T12:21:04.060Z,25.99
2023-10-06T12:25:26.844Z,27.22
2023-10-06T12:29:42.980Z,27.40
2023-10-06T12:34:05.348Z,26.35
2023-10-06T12:38:22.158Z,26.34
2023-10-06T12:42:40.183Z,26.51
2023-10-06T12:46:57.059Z,26.16
2023-10-06T12:51:14.296Z,25.95
2023-10-06T12:55:30.678Z,25.20
2023-10-06T12:59:47.295Z,25.78
2023-10-06T13:04:03.872Z,26.38
2023-10-06T13:08:23.067Z,26.01
2023-10-06T13:12:43.073Z,25.53
2023-10-06T13:16:59.624Z,25.76
2023-10-06T13:21:16.033Z,25.21
2023-10-06T13:25:33.083Z,24.74
2023-10-06T13:29:49.463Z,24.30
2023-10-06T13:34:05.882Z,24.67
2023-10-06T13:38:23.040Z,24.69
2023-10-06T13:42:46.667Z,24.58
2023-10-06T13:47:07.049Z,24.94
2023-10-06T13:51:23.408Z,25.62
2023-10-06T13:55:40.757Z,25.71
2023-10-06T13:59:57.137Z,26.22
2023-10-06T14:04:14.466Z,26.50
2023-10-06T14:08:30.899Z,26.97
2023-10-06T14:12:52.459Z,26.69
2023-10-06T14:17:18.079Z,25.97
2023-10-06T14:21:35.595Z,25.66
2023-10-06T14:25:53.566Z,25.60
2023-10-06T14:30:10.687Z,25.97
2023-10-06T14:34:53.417Z,26.45
2023-10-06T14:39:28.179Z,25.71
2023-10-06T14:44:04.248Z,25.97
2023-10-06T14:48:20.610Z,25.70
2023-10-06T14:52:37.031Z,25.62
2023-10-06T14:56:55.307Z,24.63
2023-10-06T15:01:15.937Z,24.52
2023-10-06T15:05:39.782Z,24.54
2023-10-06T15:09:57.035Z,24.98
2023-10-06T15:14:15.404Z,25.03
2023-10-06T15:18:32.185Z,24.63
2023-10-06T15:22:52.737Z,24.89
2023-10-06T15:27:09.385Z,24.60
2023-10-06T15:31:28.464Z,23.97
2023-10-06T15:35:45.042Z,23.26
2023-10-06T15:40:04.746Z,22.92
2023-10-06T15:44:22.041Z,22.71
2023-10-06T15:48:39.931Z,22.80
2023-10-06T15:52:56.819Z,22.20
2023-10-06T15:57:13.200Z,22.29
2023-10-06T16:01:30.231Z,22.52
2023-10-06T16:05:47.235Z,22.44
2023-10-06T16:10:03.779Z,22.34
2023-10-06T16:14:20.730Z,22.12
2023-10-06T16:18:37.706Z,22.17
2023-10-06T16:22:58.821Z,21.95
2023-10-06T16:27:15.367Z,21.73
2023-10-06T16:31:34.360Z,21.47
2023-10-06T16:35:51.231Z,21.45
2023-10-06T16:40:10.677Z,21.35
2023-10-06T16:44:27.335Z,21.14
2023-10-06T16:48:43.955Z,21.01
2023-10-06T16:53:01.492Z,20.93
2023-10-06T16:57:18.209Z,20.79
2023-10-06T17:01:36.112Z,20.41
2023-10-06T17:05:53.373Z,20.61
2023-10-06T17:10:11.595Z,20.47
2023-10-06T17:14:28.358Z,20.00
2023-10-06T17:18:44.879Z,19.88
2023-10-06T17:23:01.753Z,19.91
2023-10-06T17:27:18.260Z,19.69
2023-10-06T17:31:36.140Z,19.65
2023-10-06T17:35:52.933Z,19.52
2023-10-06T17:40:11.597Z,19.37
2023-10-06T17:44:29.058Z,19.66
2023-10-06T17:48:49.254Z,19.36
2023-10-06T17:53:06.699Z,19.20
2023-10-06T17:57:24.261Z,19.06
2023-10-06T18:01:40.752Z,18.70
2023-10-06T18:05:57.364Z,18.69
2023-10-06T18:10:15.953Z,18.71
2023-10-06T18:14:32.555Z,18.39
2023-10-06T18:18:48.859Z,18.43
2023-10-06T18:23:06.930Z,18.32
2023-10-06T18:27:23.858Z,18.36
2023-10-06T18:31:40.789Z,18.28
2023-10-06T18:35:57.346Z,17.92
2023-10-06T18:40:14.917Z,18.02
2023-10-06T18:44:32.545Z,17.92
2023-10-06T18:48:49.122Z,17.68
2023-10-06T18:53:05.562Z,17.46
2023-10-06T18:57:22.228Z,17.50
2023-10-06T19:01:39.562Z,17.33
2023-10-06T19:06:06.954Z,17.40
2023-10-06T19:10:23.347Z,17.33
2023-10-06T19:14:40.881Z,16.99
2023-10-06T19:18:59.806Z,17.07
2023-10-06T19:23:16.496Z,17.07
2023-10-06T19:27:33.341Z,16.98
2023-10-06T19:31:49.895Z,16.92
2023-10-06T19:36:07.844Z,16.81
2023-10-06T19:40:24.245Z,16.76
2023-10-06T19:44:44.870Z,16.51
2023-10-06T19:49:01.418Z,16.59
2023-10-06T19:53:18.232Z,16.28
2023-10-06T19:57:36.111Z,15.87
2023-10-06T20:01:52.461Z,15.80
2023-10-06T20:06:09.147Z,15.90
2023-10-06T20:10:31.645Z,15.94
2023-10-06T20:14:47.980Z,15.94
2023-10-06T20:19:04.369Z,15.82
2023-10-06T20:23:21.118Z,15.88
2023-10-06T20:27:37.773Z,15.73
2023-10-06T20:31:55.064Z,15.69
2023-10-06T20:36:11.471Z,15.31
2023-10-06T20:40:29.259Z,15.23
2023-10-06T20:44:45.626Z,15.20
2023-10-06T20:49:02.164Z,15.40
2023-10-06T20:53:18.719Z,15.39
2023-10-06T20:57:36.055Z,15.24
2023-10-06T21:01:53.497Z,15.00
2023-10-06T21:06:10.261Z,14.97
2023-10-06T21:10:28.152Z,15.11
2023-10-06T21:14:45.286Z,15.15
2023-10-06T21:19:01.593Z,15.00
2023-10-06T21:23:19.065Z,14.93
2023-10-06T21:27:37.493Z,14.82
2023-10-06T21:31:54.478Z,14.80
2023-10-06T21:36:10.830Z,14.70
2023-10-06T21:40:28.736Z,14.67
2023-10-06T21:44:45.483Z,14.62
2023-10-06T21:49:03.815Z,14.61
2023-10-06T21:53:20.197Z,14.64
2023-10-06T21:57:36.555Z,14.53
2023-10-06T22:01:53.931Z,14.52
2023-10-06T22:06:11.414Z,14.45
2023-10-06T22:10:29.005Z,14.42
2023-10-06T22:14:45.359Z,14.43
2023-10-06T22:19:01.696Z,14.55
2023-10-06T22:23:18.052Z,14.32
2023-10-06T22:27:34.673Z,14.34
2023-10-06T22:31:51.500Z,14.14
2023-10-06T22:36:08.070Z,14.15
2023-10-06T22:40:25.115Z,14.17
2023-10-06T22:44:41.623Z,14.32
2023-10-06T22:48:58.403Z,14.18
2023-10-06T22:53:14.822Z,14.00
2023-10-06T22:57:31.226Z,14.00
2023-10-06T23:01:48.212Z,14.16
2023-10-06T23:06:06.503Z,14.09
2023-10-06T23:10:24.001Z,13.99
2023-10-06T23:14:43.636Z,14.07
2023-10-06T23:19:00.386Z,14.03
2023-10-06T23:23:20.812Z,14.05
2023-10-06T23:27:37.973Z,13.90
2023-10-06T23:31:54.455Z,13.69
2023-10-06T23:36:11.770Z,13.69
2023-10-06T23:40:34.865Z,13.82
2023-10-06T23:44:51.288Z,13.82
2023-10-06T23:49:12.728Z,13.76
2023-10-06T23:53:29.543Z,13.66
2023-10-06T23:57:51.708Z,13.83
